createdAt,value
2022-11-16T00:04:21.529Z,1.90
2022-11-16T00:09:27.175Z,1.57
2022-11-16T00:14:31.908Z,1.93
2022-11-16T00:19:34.875Z,1.90
2022-11-16T00:24:39.164Z,2.20
2022-11-16T00:29:42.114Z,1.80
2022-11-16T00:34:45.080Z,1.93
2022-11-16T00:39:49.712Z,1.97
2022-11-16T00:44:52.643Z,2.23
2022-11-16T00:49:55.589Z,2.13
2022-11-16T00:54:59.905Z,1.77
2022-11-16T01:00:04.193Z,1.70
2022-11-16T01:05:12.883Z,1.57
2022-11-16T01:10:19.568Z,1.50
2022-11-16T01:15:24.831Z,1.60
2022-11-16T01:20:30.238Z,1.63
2022-11-16T01:25:34.587Z,1.80
2022-11-16T01:30:37.595Z,2.07
2022-11-16T01:35:45.251Z,2.67
2022-11-16T01:40:53.466Z,2.47
2022-11-16T01:45:56.541Z,2.27
2022-11-16T01:51:00.203Z,2.10
2022-11-16T01:56:08.353Z,2.77
2022-11-16T02:01:29.704Z,2.07
2022-11-16T02:06:49.814Z,2.20
2022-11-16T02:12:09.855Z,2.20
2022-11-16T02:17:22.547Z,2.47
2022-11-16T02:22:41.879Z,2.47
2022-11-16T02:28:17.617Z,2.50
2022-11-16T02:33:26.785Z,2.40
2022-11-16T02:38:33.298Z,2.57
2022-11-16T02:43:39.430Z,2.10
2022-11-16T02:48:49.602Z,1.80
2022-11-16T02:54:01.134Z,2.40
2022-11-16T02:59:04.989Z,2.27
2022-11-16T03:04:15.673Z,2.70
2022-11-16T03:09:23.570Z,1.93
2022-11-16T03:14:32.459Z,1.87
2022-11-16T03:19:42.056Z,2.13
2022-11-16T03:24:46.065Z,2.43
2022-11-16T03:29:56.510Z,2.63
2022-11-16T03:35:04.954Z,2.20
2022-11-16T03:40:10.566Z,2.63
2022-11-16T03:45:15.027Z,2.30
2022-11-16T03:50:19.721Z,2.10
2022-11-16T03:55:22.793Z,2.00
2022-11-16T04:00:26.076Z,1.83
2022-11-16T04:05:48.343Z,1.60
2022-11-16T04:11:09.252Z,1.10
2022-11-16T04:16:30.290Z,1.17
2022-11-16T04:21:57.132Z,1.37
2022-11-16T04:27:25.914Z,1.10
2022-11-16T04:32:47.875Z,1.00
2022-11-16T04:37:53.855Z,0.80
2022-11-16T04:43:04.982Z,0.80
2022-11-16T04:48:16.412Z,0.70
2022-11-16T04:53:22.566Z,0.90
2022-11-16T04:58:33.945Z,0.70
2022-11-16T05:03:37.387Z,0.50
2022-11-16T05:08:41.913Z,0.60
2022-11-16T05:13:46.426Z,0.70
2022-11-16T05:19:10.336Z,0.60
2022-11-16T05:24:33.010Z,0.70
2022-11-16T05:29:37.613Z,0.70
2022-11-16T05:34:41.082Z,0.60
2022-11-16T05:39:46.414Z,0.60
2022-11-16T05:44:50.053Z,0.67
2022-11-16T05:49:53.838Z,0.50
2022-11-16T05:54:58.953Z,0.43
2022-11-16T06:00:05.833Z,0.37
2022-11-16T06:05:17.866Z,0.37
2022-11-16T06:10:23.509Z,0.67
2022-11-16T06:15:28.706Z,0.50
2022-11-16T06:20:31.765Z,0.63
2022-11-16T06:25:36.220Z,0.97
2022-11-16T06:30:40.626Z,1.73
2022-11-16T06:35:44.706Z,1.20
2022-11-16T06:40:54.911Z,1.10
2022-11-16T06:46:00.260Z,0.60
2022-11-16T06:51:03.637Z,0.70
2022-11-16T06:56:08.402Z,0.87
2022-11-16T07:01:19.176Z,0.60
2022-11-16T07:06:24.971Z,0.77
2022-11-16T07:11:29.408Z,0.50
2022-11-16T07:16:36.563Z,0.80
2022-11-16T07:21:41.438Z,0.60
2022-11-16T07:26:51.602Z,0.60
2022-11-16T07:31:59.371Z,0.70
2022-11-16T07:37:22.327Z,0.87
2022-11-16T07:42:26.769Z,0.90
2022-11-16T07:47:42.215Z,0.73
2022-11-16T07:52:50.482Z,0.50
2022-11-16T07:57:59.326Z,0.60
2022-11-16T08:03:02.745Z,0.80
2022-11-16T08:08:06.231Z,0.80
2022-11-16T08:13:12.989Z,0.90
2022-11-16T08:18:19.483Z,0.73
2022-11-16T08:23:23.639Z,0.63
2022-11-16T08:28:29.758Z,0.70
2022-11-16T08:33:32.847Z,0.60
2022-11-16T08:38:36.360Z,0.77
2022-11-16T08:43:41.319Z,0.90
2022-11-16T08:48:45.980Z,0.63
2022-11-16T08:53:49.688Z,0.93
2022-11-16T08:58:58.952Z,0.97
2022-11-16T09:04:02.599Z,0.70
2022-11-16T09:09:05.774Z,0.90
2022-11-16T09:14:10.394Z,0.80
2022-11-16T09:19:13.590Z,0.60
2022-11-16T09:24:17.200Z,0.87
2022-11-16T09:29:21.541Z,0.90
2022-11-16T09:34:24.638Z,0.77
2022-11-16T09:39:32.242Z,0.73
2022-11-16T09:44:52.124Z,1.00
2022-11-16T09:50:02.992Z,0.40
2022-11-16T09:55:26.140Z,0.67
2022-11-16T10:00:32.204Z,0.57
2022-11-16T10:05:42.175Z,1.10
2022-11-16T10:10:56.139Z,0.90
2022-11-16T10:16:07.877Z,0.90
2022-11-16T10:21:36.034Z,0.93
2022-11-16T10:26:45.348Z,1.03
2022-11-16T10:31:59.594Z,1.00
2022-11-16T10:37:08.347Z,0.90
2022-11-16T10:42:18.082Z,0.60
2022-11-16T10:47:29.488Z,0.60
2022-11-16T10:52:36.468Z,0.87
2022-11-16T10:57:56.157Z,1.13
2022-11-16T11:03:00.466Z,0.70
2022-11-16T11:08:05.719Z,0.50
2022-11-16T11:13:27.111Z,0.77
2022-11-16T11:18:31.378Z,1.20
2022-11-16T11:23:42.575Z,0.80
2022-11-16T11:28:50.536Z,0.73
2022-11-16T11:33:56.707Z,1.40
2022-11-16T11:39:03.175Z,0.63
2022-11-16T11:44:07.824Z,0.47
2022-11-16T11:49:19.296Z,0.97
2022-11-16T11:54:25.061Z,0.80
2022-11-16T11:59:28.671Z,0.90
2022-11-16T12:05:13.546Z,0.77
2022-11-16T12:10:26.213Z,1.20
2022-11-16T12:15:59.313Z,1.37
2022-11-16T12:21:11.746Z,1.30
2022-11-16T12:26:24.678Z,1.33
2022-11-16T12:31:53.697Z,1.27
2022-11-16T12:37:04.810Z,1.80
2022-11-16T12:42:36.266Z,2.40
2022-11-16T12:47:48.593Z,2.23
2022-11-16T12:53:10.459Z,1.70
2022-11-16T12:58:24.790Z,1.00
2022-11-16T13:03:37.709Z,1.20
2022-11-16T13:08:52.017Z,1.20
2022-11-16T13:14:02.032Z,1.23
2022-11-16T13:19:07.913Z,0.90
2022-11-16T13:24:25.596Z,0.97
2022-11-16T13:29:37.149Z,1.00
2022-11-16T13:34:41.507Z,0.90
2022-11-16T13:40:14.887Z,1.00
2022-11-16T13:45:21.659Z,1.17
2022-11-16T13:50:33.040Z,1.20
2022-11-16T13:55:42.111Z,1.20
2022-11-16T14:00:57.455Z,1.10
2022-11-16T14:06:00.477Z,0.83
2022-11-16T14:11:03.472Z,1.40
2022-11-16T14:16:48.173Z,1.50
2022-11-16T14:22:01.008Z,1.40
2022-11-16T14:27:13.154Z,1.60
2022-11-16T14:32:22.717Z,1.80
2022-11-16T14:37:34.070Z,1.00
2022-11-16T14:43:01.933Z,1.43
2022-11-16T14:48:16.872Z,1.13
2022-11-16T14:53:21.459Z,1.60
2022-11-16T14:58:24.722Z,1.57
2022-11-16T15:03:30.797Z,1.50
2022-11-16T15:08:39.567Z,1.63
2022-11-16T15:13:46.763Z,1.37
2022-11-16T15:19:00.606Z,1.50
2022-11-16T15:24:29.303Z,1.47
2022-11-16T15:29:28.544Z,1.40
2022-11-16T15:34:33.070Z,1.83
2022-11-16T15:39:37.630Z,1.47
2022-11-16T15:44:40.774Z,1.60
2022-11-16T15:49:49.537Z,1.80
2022-11-16T15:55:05.521Z,1.43
2022-11-16T16:00:23.538Z,1.93
2022-11-16T16:05:34.685Z,1.97
2022-11-16T16:10:38.999Z,1.30
2022-11-16T16:15:41.977Z,1.50
2022-11-16T16:20:49.661Z,1.43
2022-11-16T16:25:53.955Z,1.33
2022-11-16T16:30:56.963Z,1.90
2022-11-16T16:35:59.962Z,1.50
2022-11-16T16:41:06.470Z,1.53
2022-11-16T16:46:13.227Z,1.80
2022-11-16T16:51:16.153Z,1.10
2022-11-16T16:56:20.628Z,1.40
2022-11-16T17:01:23.699Z,1.53
2022-11-16T17:06:26.690Z,1.37
2022-11-16T17:11:31.239Z,1.93
2022-11-16T17:16:34.201Z,1.93
2022-11-16T17:21:37.171Z,1.73
2022-11-16T17:26:41.635Z,1.40
2022-11-16T17:31:47.175Z,1.17
2022-11-16T17:36:50.162Z,1.07
2022-11-16T17:41:54.483Z,1.50
2022-11-16T17:46:57.409Z,1.27
2022-11-16T17:52:01.625Z,1.53
2022-11-16T17:57:05.983Z,1.17
2022-11-16T18:02:11.500Z,1.07
2022-11-16T18:07:14.533Z,1.23
2022-11-16T18:12:18.900Z,1.60
2022-11-16T18:17:21.862Z,1.40
2022-11-16T18:22:24.783Z,1.50
2022-11-16T18:27:29.020Z,2.23
2022-11-16T18:32:33.442Z,1.90
2022-11-16T18:37:36.449Z,2.23
2022-11-16T18:42:41.634Z,2.00
2022-11-16T18:47:44.592Z,2.60
2022-11-16T18:52:47.635Z,2.07
2022-11-16T18:57:52.062Z,1.87
2022-11-16T19:02:55.044Z,2.00
2022-11-16T19:07:58.398Z,1.97
2022-11-16T19:13:04.741Z,2.10
2022-11-16T19:18:21.272Z,1.70
2022-11-16T19:23:25.946Z,1.40
2022-11-16T19:28:30.213Z,1.20
2022-11-16T19:33:33.436Z,1.20
2022-11-16T19:38:36.760Z,1.40
2022-11-16T19:43:43.718Z,1.50
2022-11-16T19:48:47.153Z,1.27
2022-11-16T19:53:50.604Z,1.20
2022-11-16T19:58:55.019Z,1.50
2022-11-16T20:03:59.698Z,1.30
2022-11-16T20:09:08.738Z,1.10
2022-11-16T20:14:14.796Z,1.07
2022-11-16T20:19:20.449Z,1.30
2022-11-16T20:24:23.475Z,1.40
2022-11-16T20:29:27.756Z,1.10
2022-11-16T20:34:30.974Z,1.40
2022-11-16T20:39:33.905Z,1.20
2022-11-16T20:44:38.252Z,1.30
2022-11-16T20:49:41.271Z,0.97
2022-11-16T20:54:44.201Z,1.53
2022-11-16T20:59:48.595Z,1.60
2022-11-16T21:04:54.759Z,1.60
2022-11-16T21:10:17.769Z,1.43
2022-11-16T21:15:22.405Z,1.70
2022-11-16T21:20:28.150Z,1.30
2022-11-16T21:25:31.486Z,1.10
2022-11-16T21:30:35.797Z,1.20
2022-11-16T21:35:38.728Z,1.30
2022-11-16T21:40:41.670Z,1.50
2022-11-16T21:45:47.430Z,1.70
2022-11-16T21:51:00.635Z,1.90
2022-11-16T21:56:04.377Z,1.40
2022-11-16T22:01:09.705Z,2.37
2022-11-16T22:06:32.619Z,1.17
2022-11-16T22:11:35.561Z,1.20
2022-11-16T22:16:39.905Z,1.80
2022-11-16T22:21:42.881Z,1.20
2022-11-16T22:26:45.843Z,1.27
2022-11-16T22:31:50.130Z,1.50
2022-11-16T22:36:53.136Z,1.63
2022-11-16T22:41:56.110Z,1.40
2022-11-16T22:47:00.423Z,1.47
2022-11-16T22:52:03.391Z,1.60
2022-11-16T22:57:06.498Z,1.93
2022-11-16T23:02:10.806Z,1.57
2022-11-16T23:07:13.766Z,1.90
2022-11-16T23:12:34.205Z,1.30
2022-11-16T23:17:38.538Z,1.77
2022-11-16T23:22:58.970Z,1.30
2022-11-16T23:28:06.674Z,1.67
2022-11-16T23:33:11.437Z,1.37
2022-11-16T23:38:14.446Z,1.23
2022-11-16T23:43:35.136Z,1.23
2022-11-16T23:48:39.708Z,1.30
2022-11-16T23:53:43.012Z,1.50
2022-11-16T23:58:46.357Z,1.20
